sensor_id;sensor_type;location;lat;lon;timestamp;P1;P2;P0
63707;PMS5003;67643;-34.198;22.084;2023-04-24T00:01:15;1;1;
63707;PMS5003;67643;-34.198;22.084;2023-04-24T02:08:04;0;0;
63707;PMS5003;67643;-34.198;22.084;2023-04-24T02:10:33;1;1;
63707;PMS5003;67643;-34.198;22.084;2023-04-24T02:13:02;0;0;
63707;PMS5003;67643;-34.198;22.084;2023-04-24T02:15:30;0;0;
63707;PMS5003;67643;-34.198;22.084;2023-04-24T02:17:59;0;0;
63707;PMS5003;67643;-34.198;22.084;2023-04-24T02:20:27;0;0;
63707;PMS5003;67643;-34.198;22.084;2023-04-24T02:22:56;0;0;
63707;PMS5003;67643;-34.198;22.084;2023-04-24T02:25:25;1;1;
63707;PMS5003;67643;-34.198;22.084;2023-04-24T02:27:54;0;0;
63707;PMS5003;67643;-34.198;22.084;2023-04-24T02:30:22;0;0;
63707;PMS5003;67643;-34.198;22.084;2023-04-24T02:32:51;0;0;
63707;PMS5003;67643;-34.198;22.084;2023-04-24T02:35:20;0;0;
63707;PMS5003;67643;-34.198;22.084;2023-04-24T02:37:49;0;0;
63707;PMS5003;67643;-34.198;22.084;2023-04-24T02:40:18;0;0;
63707;PMS5003;67643;-34.198;22.084;2023-04-24T02:42:46;0;0;
63707;PMS5003;67643;-34.198;22.084;2023-04-24T02:45:14;0;0;
63707;PMS5003;67643;-34.198;22.084;2023-04-24T02:47:43;0;0;
63707;PMS5003;67643;-34.198;22.084;2023-04-24T02:50:11;0;0;
63707;PMS5003;67643;-34.198;22.084;2023-04-24T02:52:40;0;0;
63707;PMS5003;67643;-34.198;22.084;2023-04-24T02:55:08;0;0;
63707;PMS5003;67643;-34.198;22.084;2023-04-24T02:57:37;0;0;
63707;PMS5003;67643;-34.198;22.084;2023-04-24T03:00:06;0;0;
63707;PMS5003;67643;-34.198;22.084;2023-04-24T03:02:35;0;0;
63707;PMS5003;67643;-34.198;22.084;2023-04-24T03:05:04;0;0;
63707;PMS5003;67643;-34.198;22.084;2023-04-24T03:07:33;1;0;
63707;PMS5003;67643;-34.198;22.084;2023-04-24T03:10:02;0;0;
63707;PMS5003;67643;-34.198;22.084;2023-04-24T03:12:31;1;1;
63707;PMS5003;67643;-34.198;22.084;2023-04-24T03:14:59;0;0;
63707;PMS5003;67643;-34.198;22.084;2023-04-24T03:17:28;0;0;
63707;PMS5003;67643;-34.198;22.084;2023-04-24T03:19:56;0;0;
63707;PMS5003;67643;-34.198;22.084;2023-04-24T03:22:25;0;0;
63707;PMS5003;67643;-34.198;22.084;2023-04-24T03:24:53;0;0;
63707;PMS5003;67643;-34.198;22.084;2023-04-24T03:27:22;0;0;
63707;PMS5003;67643;-34.198;22.084;2023-04-24T03:29:50;0;0;
63707;PMS5003;67643;-34.198;22.084;2023-04-24T03:32:20;0;0;
63707;PMS5003;67643;-34.198;22.084;2023-04-24T03:34:49;0;0;
63707;PMS5003;67643;-34.198;22.084;2023-04-24T03:37:18;0;0;
63707;PMS5003;67643;-34.198;22.084;2023-04-24T03:39:49;0;0;
63707;PMS5003;67643;-34.198;22.084;2023-04-24T03:42:17;0;0;
63707;PMS5003;67643;-34.198;22.084;2023-04-24T03:44:45;0;0;
63707;PMS5003;67643;-34.198;22.084;2023-04-24T03:47:16;0;0;
63707;PMS5003;67643;-34.198;22.084;2023-04-24T03:49:44;0;0;
63707;PMS5003;67643;-34.198;22.084;2023-04-24T03:52:13;0;0;
63707;PMS5003;67643;-34.198;22.084;2023-04-24T03:54:41;0;0;
63707;PMS5003;67643;-34.198;22.084;2023-04-24T03:57:11;0;0;
63707;PMS5003;67643;-34.198;22.084;2023-04-24T03:59:39;1;1;
63707;PMS5003;67643;-34.198;22.084;2023-04-24T04:02:07;2;2;
63707;PMS5003;67643;-34.198;22.084;2023-04-24T04:04:36;1;0;
63707;PMS5003;67643;-34.198;22.084;2023-04-24T04:07:04;0;0;
63707;PMS5003;67643;-34.198;22.084;2023-04-24T04:09:33;0;0;
63707;PMS5003;67643;-34.198;22.084;2023-04-24T04:12:02;2;2;
63707;PMS5003;67643;-34.198;22.084;2023-04-24T04:14:30;1;1;
63707;PMS5003;67643;-34.198;22.084;2023-04-24T04:17:00;0;0;
63707;PMS5003;67643;-34.198;22.084;2023-04-24T04:19:29;0;0;
63707;PMS5003;67643;-34.198;22.084;2023-04-24T04:21:58;0;0;
63707;PMS5003;67643;-34.198;22.084;2023-04-24T04:24:26;1;1;
63707;PMS5003;67643;-34.198;22.084;2023-04-24T04:26:55;0;0;
63707;PMS5003;67643;-34.198;22.084;2023-04-24T04:29:24;0;0;
63707;PMS5003;67643;-34.198;22.084;2023-04-24T04:31:53;2;1;
63707;PMS5003;67643;-34.198;22.084;2023-04-24T04:34:21;0;0;
63707;PMS5003;67643;-34.198;22.084;2023-04-24T04:36:51;0;0;
63707;PMS5003;67643;-34.198;22.084;2023-04-24T04:39:19;0;0;
63707;PMS5003;67643;-34.198;22.084;2023-04-24T04:41:47;1;1;
63707;PMS5003;67643;-34.198;22.084;2023-04-24T04:44:16;2;1;
63707;PMS5003;67643;-34.198;22.084;2023-04-24T04:46:45;1;1;
63707;PMS5003;67643;-34.198;22.084;2023-04-24T04:49:13;1;1;
63707;PMS5003;67643;-34.198;22.084;2023-04-24T04:51:42;0;0;
63707;PMS5003;67643;-34.198;22.084;2023-04-24T04:54:10;1;0;
63707;PMS5003;67643;-34.198;22.084;2023-04-24T04:56:39;0;0;
63707;PMS5003;67643;-34.198;22.084;2023-04-24T04:59:07;0;0;
63707;PMS5003;67643;-34.198;22.084;2023-04-24T05:01:36;1;1;
63707;PMS5003;67643;-34.198;22.084;2023-04-24T05:04:04;0;0;
63707;PMS5003;67643;-34.198;22.084;2023-04-24T05:06:33;0;0;
63707;PMS5003;67643;-34.198;22.084;2023-04-24T05:09:02;0;0;
63707;PMS5003;67643;-34.198;22.084;2023-04-24T05:11:31;1;1;
63707;PMS5003;67643;-34.198;22.084;2023-04-24T05:14:00;0;0;
63707;PMS5003;67643;-34.198;22.084;2023-04-24T05:16:28;0;0;
63707;PMS5003;67643;-34.198;22.084;2023-04-24T05:18:57;1;1;
63707;PMS5003;67643;-34.198;22.084;2023-04-24T05:21:25;0;0;
63707;PMS5003;67643;-34.198;22.084;2023-04-24T05:23:54;0;0;
63707;PMS5003;67643;-34.198;22.084;2023-04-24T05:26:22;0;0;
63707;PMS5003;67643;-34.198;22.084;2023-04-24T05:28:51;0;0;
63707;PMS5003;67643;-34.198;22.084;2023-04-24T05:31:19;1;1;
63707;PMS5003;67643;-34.198;22.084;2023-04-24T05:33:48;0;0;
63707;PMS5003;67643;-34.198;22.084;2023-04-24T05:36:16;1;1;
63707;PMS5003;67643;-34.198;22.084;2023-04-24T05:38:45;1;1;
63707;PMS5003;67643;-34.198;22.084;2023-04-24T05:41:13;1;1;
63707;PMS5003;67643;-34.198;22.084;2023-04-24T05:43:42;1;1;
63707;PMS5003;67643;-34.198;22.084;2023-04-24T05:46:11;0;0;
63707;PMS5003;67643;-34.198;22.084;2023-04-24T05:48:40;1;1;
63707;PMS5003;67643;-34.198;22.084;2023-04-24T05:51:09;0;0;
63707;PMS5003;67643;-34.198;22.084;2023-04-24T05:53:38;1;1;
63707;PMS5003;67643;-34.198;22.084;2023-04-24T05:56:06;1;1;
63707;PMS5003;67643;-34.198;22.084;2023-04-24T05:58:34;0;0;
63707;PMS5003;67643;-34.198;22.084;2023-04-24T06:01:03;1;1;
63707;PMS5003;67643;-34.198;22.084;2023-04-24T06:03:31;2;0;
63707;PMS5003;67643;-34.198;22.084;2023-04-24T06:06:00;1;0;
63707;PMS5003;67643;-34.198;22.084;2023-04-24T06:08:28;0;0;
63707;PMS5003;67643;-34.198;22.084;2023-04-24T06:10:57;1;1;
63707;PMS5003;67643;-34.198;22.084;2023-04-24T06:13:25;2;1;
63707;PMS5003;67643;-34.198;22.084;2023-04-24T06:15:55;0;0;
63707;PMS5003;67643;-34.198;22.084;2023-04-24T06:18:23;0;0;
63707;PMS5003;67643;-34.198;22.084;2023-04-24T06:20:52;1;1;
63707;PMS5003;67643;-34.198;22.084;2023-04-24T06:23:20;2;2;
63707;PMS5003;67643;-34.198;22.084;2023-04-24T06:25:49;1;1;
63707;PMS5003;67643;-34.198;22.084;2023-04-24T06:28:17;0;0;
63707;PMS5003;67643;-34.198;22.084;2023-04-24T06:30:45;0;0;
63707;PMS5003;67643;-34.198;22.084;2023-04-24T06:33:14;2;1;
63707;PMS5003;67643;-34.198;22.084;2023-04-24T06:35:43;0;0;
63707;PMS5003;67643;-34.198;22.084;2023-04-24T06:38:12;1;1;
63707;PMS5003;67643;-34.198;22.084;2023-04-24T06:40:40;0;0;
63707;PMS5003;67643;-34.198;22.084;2023-04-24T06:43:09;0;0;
63707;PMS5003;67643;-34.198;22.084;2023-04-24T06:45:38;0;0;
63707;PMS5003;67643;-34.198;22.084;2023-04-24T06:48:07;2;0;
63707;PMS5003;67643;-34.198;22.084;2023-04-24T06:50:35;2;0;
63707;PMS5003;67643;-34.198;22.084;2023-04-24T06:53:03;0;0;
63707;PMS5003;67643;-34.198;22.084;2023-04-24T06:55:32;2;1;
63707;PMS5003;67643;-34.198;22.084;2023-04-24T06:58:02;0;0;
63707;PMS5003;67643;-34.198;22.084;2023-04-24T07:00:31;0;0;
63707;PMS5003;67643;-34.198;22.084;2023-04-24T07:02:59;2;2;
63707;PMS5003;67643;-34.198;22.084;2023-04-24T07:05:28;1;1;
63707;PMS5003;67643;-34.198;22.084;2023-04-24T07:07:56;1;1;
63707;PMS5003;67643;-34.198;22.084;2023-04-24T07:10:25;2;2;
63707;PMS5003;67643;-34.198;22.084;2023-04-24T07:12:53;3;3;
63707;PMS5003;67643;-34.198;22.084;2023-04-24T07:15:22;2;2;
63707;PMS5003;67643;-34.198;22.084;2023-04-24T07:17:51;1;1;
63707;PMS5003;67643;-34.198;22.084;2023-04-24T07:20:20;3;2;
63707;PMS5003;67643;-34.198;22.084;2023-04-24T07:22:48;0;0;
63707;PMS5003;67643;-34.198;22.084;2023-04-24T07:25:16;2;0;
63707;PMS5003;67643;-34.198;22.084;2023-04-24T07:27:45;4;1;
63707;PMS5003;67643;-34.198;22.084;2023-04-24T07:30:14;6;4;
63707;PMS5003;67643;-34.198;22.084;2023-04-24T07:32:42;5;4;
63707;PMS5003;67643;-34.198;22.084;2023-04-24T07:35:11;6;6;
63707;PMS5003;67643;-34.198;22.084;2023-04-24T07:37:39;12;8;
63707;PMS5003;67643;-34.198;22.084;2023-04-24T07:40:08;9;7;
63707;PMS5003;67643;-34.198;22.084;2023-04-24T07:42:37;14;10;
63707;PMS5003;67643;-34.198;22.084;2023-04-24T07:45:06;15;11;
63707;PMS5003;67643;-34.198;22.084;2023-04-24T07:47:35;16;9;
63707;PMS5003;67643;-34.198;22.084;2023-04-24T07:50:04;16;10;
63707;PMS5003;67643;-34.198;22.084;2023-04-24T07:52:34;14;9;
63707;PMS5003;67643;-34.198;22.084;2023-04-24T07:55:04;7;7;
63707;PMS5003;67643;-34.198;22.084;2023-04-24T07:57:33;12;10;
63707;PMS5003;67643;-34.198;22.084;2023-04-24T08:00:03;14;10;
63707;PMS5003;67643;-34.198;22.084;2023-04-24T10:04:58;6;4;
63707;PMS5003;67643;-34.198;22.084;2023-04-24T10:07:27;6;4;
63707;PMS5003;67643;-34.198;22.084;2023-04-24T10:09:55;6;4;
63707;PMS5003;67643;-34.198;22.084;2023-04-24T10:12:24;6;2;
63707;PMS5003;67643;-34.198;22.084;2023-04-24T10:14:53;5;3;
63707;PMS5003;67643;-34.198;22.084;2023-04-24T10:17:23;5;4;
63707;PMS5003;67643;-34.198;22.084;2023-04-24T10:19:54;11;8;
63707;PMS5003;67643;-34.198;22.084;2023-04-24T10:22:23;7;6;
63707;PMS5003;67643;-34.198;22.084;2023-04-24T10:24:51;4;2;
63707;PMS5003;67643;-34.198;22.084;2023-04-24T10:27:20;5;5;
63707;PMS5003;67643;-34.198;22.084;2023-04-24T10:29:49;4;2;
63707;PMS5003;67643;-34.198;22.084;2023-04-24T10:32:20;5;5;
63707;PMS5003;67643;-34.198;22.084;2023-04-24T10:34:49;8;5;
63707;PMS5003;67643;-34.198;22.084;2023-04-24T10:37:17;5;2;
63707;PMS5003;67643;-34.198;22.084;2023-04-24T10:39:47;9;6;
63707;PMS5003;67643;-34.198;22.084;2023-04-24T10:42:16;11;5;
63707;PMS5003;67643;-34.198;22.084;2023-04-24T10:44:45;4;4;
63707;PMS5003;67643;-34.198;22.084;2023-04-24T10:47:15;5;4;
63707;PMS5003;67643;-34.198;22.084;2023-04-24T10:49:43;13;11;
63707;PMS5003;67643;-34.198;22.084;2023-04-24T10:52:12;18;11;
63707;PMS5003;67643;-34.198;22.084;2023-04-24T10:54:42;15;15;
63707;PMS5003;67643;-34.198;22.084;2023-04-24T10:57:35;26;24;
63707;PMS5003;67643;-34.198;22.084;2023-04-24T11:00:12;19;15;
63707;PMS5003;67643;-34.198;22.084;2023-04-24T11:02:42;23;21;
63707;PMS5003;67643;-34.198;22.084;2023-04-24T11:05:14;11;7;
63707;PMS5003;67643;-34.198;22.084;2023-04-24T11:08:15;22;22;
63707;PMS5003;67643;-34.198;22.084;2023-04-24T11:10:54;18;11;
63707;PMS5003;67643;-34.198;22.084;2023-04-24T11:13:25;11;8;
63707;PMS5003;67643;-34.198;22.084;2023-04-24T11:16:28;12;9;
63707;PMS5003;67643;-34.198;22.084;2023-04-24T11:19:00;12;7;
63707;PMS5003;67643;-34.198;22.084;2023-04-24T11:21:32;12;11;
63707;PMS5003;67643;-34.198;22.084;2023-04-24T11:24:23;11;8;
63707;PMS5003;67643;-34.198;22.084;2023-04-24T11:26:53;15;13;
63707;PMS5003;67643;-34.198;22.084;2023-04-24T11:29:28;14;8;
63707;PMS5003;67643;-34.198;22.084;2023-04-24T11:32:15;15;11;
63707;PMS5003;67643;-34.198;22.084;2023-04-24T11:34:47;8;7;
63707;PMS5003;67643;-34.198;22.084;2023-04-24T11:37:18;9;7;
63707;PMS5003;67643;-34.198;22.084;2023-04-24T11:39:49;8;6;
63707;PMS5003;67643;-34.198;22.084;2023-04-24T11:42:20;8;6;
63707;PMS5003;67643;-34.198;22.084;2023-04-24T11:44:51;9;7;
63707;PMS5003;67643;-34.198;22.084;2023-04-24T11:47:23;6;5;
63707;PMS5003;67643;-34.198;22.084;2023-04-24T11:49:56;5;3;
63707;PMS5003;67643;-34.198;22.084;2023-04-24T11:52:25;10;5;
63707;PMS5003;67643;-34.198;22.084;2023-04-24T11:54:53;7;6;
63707;PMS5003;67643;-34.198;22.084;2023-04-24T11:57:23;7;5;
63707;PMS5003;67643;-34.198;22.084;2023-04-24T11:59:52;6;5;
63707;PMS5003;67643;-34.198;22.084;2023-04-24T12:02:22;13;10;
63707;PMS5003;67643;-34.198;22.084;2023-04-24T12:04:51;9;5;
63707;PMS5003;67643;-34.198;22.084;2023-04-24T12:07:20;5;4;
63707;PMS5003;67643;-34.198;22.084;2023-04-24T12:09:57;9;5;
63707;PMS5003;67643;-34.198;22.084;2023-04-24T12:12:26;12;4;
63707;PMS5003;67643;-34.198;22.084;2023-04-24T12:14:56;7;4;
63707;PMS5003;67643;-34.198;22.084;2023-04-24T12:17:25;6;5;
63707;PMS5003;67643;-34.198;22.084;2023-04-24T12:19:57;3;3;
63707;PMS5003;67643;-34.198;22.084;2023-04-24T12:22:26;8;4;
63707;PMS5003;67643;-34.198;22.084;2023-04-24T12:24:56;7;6;
63707;PMS5003;67643;-34.198;22.084;2023-04-24T12:27:26;5;5;
63707;PMS5003;67643;-34.198;22.084;2023-04-24T12:29:57;12;8;
63707;PMS5003;67643;-34.198;22.084;2023-04-24T12:32:26;9;4;
63707;PMS5003;67643;-34.198;22.084;2023-04-24T12:34:55;6;3;
63707;PMS5003;67643;-34.198;22.084;2023-04-24T12:37:24;9;7;
63707;PMS5003;67643;-34.198;22.084;2023-04-24T12:40:09;16;12;
63707;PMS5003;67643;-34.198;22.084;2023-04-24T12:42:42;17;12;
63707;PMS5003;67643;-34.198;22.084;2023-04-24T12:45:12;11;11;
63707;PMS5003;67643;-34.198;22.084;2023-04-24T12:47:42;11;9;
63707;PMS5003;67643;-34.198;22.084;2023-04-24T12:50:13;10;9;
63707;PMS5003;67643;-34.198;22.084;2023-04-24T12:52:42;13;10;
63707;PMS5003;67643;-34.198;22.084;2023-04-24T12:55:11;15;6;
63707;PMS5003;67643;-34.198;22.084;2023-04-24T12:57:40;10;8;
63707;PMS5003;67643;-34.198;22.084;2023-04-24T13:00:09;11;9;
63707;PMS5003;67643;-34.198;22.084;2023-04-24T13:02:38;6;5;
63707;PMS5003;67643;-34.198;22.084;2023-04-24T13:05:06;11;11;
63707;PMS5003;67643;-34.198;22.084;2023-04-24T13:07:36;9;6;
63707;PMS5003;67643;-34.198;22.084;2023-04-24T13:10:04;9;6;
63707;PMS5003;67643;-34.198;22.084;2023-04-24T13:12:34;8;7;
63707;PMS5003;67643;-34.198;22.084;2023-04-24T13:15:03;8;6;
63707;PMS5003;67643;-34.198;22.084;2023-04-24T13:17:32;11;8;
63707;PMS5003;67643;-34.198;22.084;2023-04-24T13:20:01;11;9;
63707;PMS5003;67643;-34.198;22.084;2023-04-24T13:22:30;9;7;
63707;PMS5003;67643;-34.198;22.084;2023-04-24T13:24:58;8;5;
63707;PMS5003;67643;-34.198;22.084;2023-04-24T13:27:26;8;8;
63707;PMS5003;67643;-34.198;22.084;2023-04-24T13:29:54;8;7;
63707;PMS5003;67643;-34.198;22.084;2023-04-24T13:32:23;9;7;
63707;PMS5003;67643;-34.198;22.084;2023-04-24T13:34:52;7;5;
63707;PMS5003;67643;-34.198;22.084;2023-04-24T13:37:20;9;6;
63707;PMS5003;67643;-34.198;22.084;2023-04-24T13:39:49;6;5;
63707;PMS5003;67643;-34.198;22.084;2023-04-24T13:42:17;11;9;
63707;PMS5003;67643;-34.198;22.084;2023-04-24T13:44:46;14;10;
63707;PMS5003;67643;-34.198;22.084;2023-04-24T13:47:15;9;7;
63707;PMS5003;67643;-34.198;22.084;2023-04-24T13:49:44;6;5;
63707;PMS5003;67643;-34.198;22.084;2023-04-24T13:52:12;13;9;
63707;PMS5003;67643;-34.198;22.084;2023-04-24T13:54:41;11;5;
63707;PMS5003;67643;-34.198;22.084;2023-04-24T13:57:09;12;7;
63707;PMS5003;67643;-34.198;22.084;2023-04-24T13:59:37;10;6;
63707;PMS5003;67643;-34.198;22.084;2023-04-24T14:02:06;11;7;
63707;PMS5003;67643;-34.198;22.084;2023-04-24T14:04:34;7;4;
63707;PMS5003;67643;-34.198;22.084;2023-04-24T14:07:03;8;6;
63707;PMS5003;67643;-34.198;22.084;2023-04-24T14:09:32;10;7;
63707;PMS5003;67643;-34.198;22.084;2023-04-24T14:12:01;4;4;
63707;PMS5003;67643;-34.198;22.084;2023-04-24T14:14:29;4;4;
63707;PMS5003;67643;-34.198;22.084;2023-04-24T14:16:58;12;6;
63707;PMS5003;67643;-34.198;22.084;2023-04-24T14:19:27;11;8;
63707;PMS5003;67643;-34.198;22.084;2023-04-24T14:21:55;15;11;
63707;PMS5003;67643;-34.198;22.084;2023-04-24T14:24:23;13;5;
63707;PMS5003;67643;-34.198;22.084;2023-04-24T14:26:51;9;9;
63707;PMS5003;67643;-34.198;22.084;2023-04-24T14:29:20;12;7;
63707;PMS5003;67643;-34.198;22.084;2023-04-24T14:31:49;7;4;
63707;PMS5003;67643;-34.198;22.084;2023-04-24T14:34:17;12;7;
63707;PMS5003;67643;-34.198;22.084;2023-04-24T14:36:46;10;6;
63707;PMS5003;67643;-34.198;22.084;2023-04-24T14:39:14;5;3;
63707;PMS5003;67643;-34.198;22.084;2023-04-24T14:41:42;4;4;
63707;PMS5003;67643;-34.198;22.084;2023-04-24T14:44:11;4;2;
63707;PMS5003;67643;-34.198;22.084;2023-04-24T14:46:39;9;8;
63707;PMS5003;67643;-34.198;22.084;2023-04-24T14:49:08;15;10;
63707;PMS5003;67643;-34.198;22.084;2023-04-24T14:51:36;9;5;
63707;PMS5003;67643;-34.198;22.084;2023-04-24T14:54:05;9;8;
63707;PMS5003;67643;-34.198;22.084;2023-04-24T14:56:33;8;5;
63707;PMS5003;67643;-34.198;22.084;2023-04-24T14:59:02;11;7;
63707;PMS5003;67643;-34.198;22.084;2023-04-24T15:01:30;9;7;
63707;PMS5003;67643;-34.198;22.084;2023-04-24T15:03:58;17;6;
63707;PMS5003;67643;-34.198;22.084;2023-04-24T15:06:27;7;6;
63707;PMS5003;67643;-34.198;22.084;2023-04-24T15:08:56;6;2;
63707;PMS5003;67643;-34.198;22.084;2023-04-24T15:11:26;10;4;
63707;PMS5003;67643;-34.198;22.084;2023-04-24T15:13:55;8;7;
63707;PMS5003;67643;-34.198;22.084;2023-04-24T15:16:24;12;8;
63707;PMS5003;67643;-34.198;22.084;2023-04-24T15:18:53;6;4;
63707;PMS5003;67643;-34.198;22.084;2023-04-24T15:21:21;5;3;
63707;PMS5003;67643;-34.198;22.084;2023-04-24T15:23:49;9;5;
63707;PMS5003;67643;-34.198;22.084;2023-04-24T15:26:18;12;4;
63707;PMS5003;67643;-34.198;22.084;2023-04-24T15:28:47;5;4;
63707;PMS5003;67643;-34.198;22.084;2023-04-24T15:31:15;9;5;
63707;PMS5003;67643;-34.198;22.084;2023-04-24T15:33:44;7;5;
63707;PMS5003;67643;-34.198;22.084;2023-04-24T15:36:13;11;6;
63707;PMS5003;67643;-34.198;22.084;2023-04-24T15:38:41;10;5;
63707;PMS5003;67643;-34.198;22.084;2023-04-24T15:41:11;7;6;
63707;PMS5003;67643;-34.198;22.084;2023-04-24T15:43:40;12;8;
63707;PMS5003;67643;-34.198;22.084;2023-04-24T15:46:08;10;5;
63707;PMS5003;67643;-34.198;22.084;2023-04-24T15:48:37;7;7;
63707;PMS5003;67643;-34.198;22.084;2023-04-24T15:51:06;6;5;
63707;PMS5003;67643;-34.198;22.084;2023-04-24T15:53:34;12;7;
63707;PMS5003;67643;-34.198;22.084;2023-04-24T15:56:02;7;7;
63707;PMS5003;67643;-34.198;22.084;2023-04-24T15:58:31;10;5;
63707;PMS5003;67643;-34.198;22.084;2023-04-24T16:00:59;8;6;
63707;PMS5003;67643;-34.198;22.084;2023-04-24T16:03:28;12;8;
63707;PMS5003;67643;-34.198;22.084;2023-04-24T20:06:03;5;5;
63707;PMS5003;67643;-34.198;22.084;2023-04-24T20:08:31;10;7;
63707;PMS5003;67643;-34.198;22.084;2023-04-24T20:11:00;7;6;
63707;PMS5003;67643;-34.198;22.084;2023-04-24T20:13:28;11;5;
63707;PMS5003;67643;-34.198;22.084;2023-04-24T20:15:57;13;7;
63707;PMS5003;67643;-34.198;22.084;2023-04-24T20:18:25;7;4;
63707;PMS5003;67643;-34.198;22.084;2023-04-24T20:20:54;8;4;
63707;PMS5003;67643;-34.198;22.084;2023-04-24T20:23:23;8;6;
63707;PMS5003;67643;-34.198;22.084;2023-04-24T20:25:52;5;2;
63707;PMS5003;67643;-34.198;22.084;2023-04-24T20:28:21;6;4;
63707;PMS5003;67643;-34.198;22.084;2023-04-24T20:30:49;11;7;
63707;PMS5003;67643;-34.198;22.084;2023-04-24T20:33:17;8;3;
63707;PMS5003;67643;-34.198;22.084;2023-04-24T20:35:46;5;3;
63707;PMS5003;67643;-34.198;22.084;2023-04-24T20:38:14;8;3;
63707;PMS5003;67643;-34.198;22.084;2023-04-24T20:40:43;8;4;
63707;PMS5003;67643;-34.198;22.084;2023-04-24T20:43:11;6;5;
63707;PMS5003;67643;-34.198;22.084;2023-04-24T20:45:40;6;5;
63707;PMS5003;67643;-34.198;22.084;2023-04-24T20:48:08;4;4;
63707;PMS5003;67643;-34.198;22.084;2023-04-24T20:50:36;6;3;
63707;PMS5003;67643;-34.198;22.084;2023-04-24T20:53:05;5;5;
63707;PMS5003;67643;-34.198;22.084;2023-04-24T20:55:33;7;3;
63707;PMS5003;67643;-34.198;22.084;2023-04-24T20:58:02;4;3;
63707;PMS5003;67643;-34.198;22.084;2023-04-24T21:00:31;8;4;
63707;PMS5003;67643;-34.198;22.084;2023-04-24T21:02:59;7;4;
63707;PMS5003;67643;-34.198;22.084;2023-04-24T21:05:28;8;3;
63707;PMS5003;67643;-34.198;22.084;2023-04-24T21:07:57;7;4;
63707;PMS5003;67643;-34.198;22.084;2023-04-24T21:10:25;4;2;
63707;PMS5003;67643;-34.198;22.084;2023-04-24T21:12:54;7;5;
63707;PMS5003;67643;-34.198;22.084;2023-04-24T21:15:22;8;5;
63707;PMS5003;67643;-34.198;22.084;2023-04-24T21:17:51;10;4;
63707;PMS5003;67643;-34.198;22.084;2023-04-24T21:20:19;10;5;
63707;PMS5003;67643;-34.198;22.084;2023-04-24T21:22:48;6;4;
63707;PMS5003;67643;-34.198;22.084;2023-04-24T21:25:16;7;6;
63707;PMS5003;67643;-34.198;22.084;2023-04-24T21:27:45;5;4;
63707;PMS5003;67643;-34.198;22.084;2023-04-24T21:30:13;7;5;
63707;PMS5003;67643;-34.198;22.084;2023-04-24T21:32:42;8;3;
63707;PMS5003;67643;-34.198;22.084;2023-04-24T21:35:10;6;4;
63707;PMS5003;67643;-34.198;22.084;2023-04-24T21:37:38;9;4;
63707;PMS5003;67643;-34.198;22.084;2023-04-24T21:40:07;7;4;
63707;PMS5003;67643;-34.198;22.084;2023-04-24T21:42:36;8;6;
63707;PMS5003;67643;-34.198;22.084;2023-04-24T21:45:05;9;4;
63707;PMS5003;67643;-34.198;22.084;2023-04-24T21:47:34;9;6;
63707;PMS5003;67643;-34.198;22.084;2023-04-24T21:50:03;7;4;
63707;PMS5003;67643;-34.198;22.084;2023-04-24T21:52:32;10;7;
63707;PMS5003;67643;-34.198;22.084;2023-04-24T21:55:00;3;3;
63707;PMS5003;67643;-34.198;22.084;2023-04-24T21:57:28;6;3;
63707;PMS5003;67643;-34.198;22.084;2023-04-24T21:59:57;7;4;
